createdAt,value
2023-05-24T00:00:32.785Z,9.56
2023-05-24T00:03:00.793Z,9.57
2023-05-24T00:05:31.037Z,9.57
2023-05-24T00:08:00.519Z,9.56
2023-05-24T00:10:28.291Z,9.45
2023-05-24T00:12:56.213Z,9.40
2023-05-24T00:15:24.305Z,9.39
2023-05-24T00:17:52.328Z,9.24
2023-05-24T00:20:20.752Z,9.31
2023-05-24T00:22:48.967Z,9.35
2023-05-24T00:25:18.602Z,9.38
2023-05-24T00:27:46.571Z,9.26
2023-05-24T00:30:14.664Z,9.26
2023-05-24T00:32:42.702Z,9.27
2023-05-24T00:35:11.451Z,9.30
2023-05-24T00:37:44.941Z,9.28
2023-05-24T00:40:13.533Z,9.21
2023-05-24T00:42:42.733Z,9.26
2023-05-24T00:45:11.356Z,9.16
2023-05-24T00:47:39.967Z,9.22
2023-05-24T00:50:13.148Z,9.18
2023-05-24T00:52:43.030Z,9.15
2023-05-24T00:55:13.535Z,9.13
2023-05-24T00:57:43.000Z,9.16
2023-05-24T01:00:13.448Z,9.13
2023-05-24T01:02:41.812Z,9.14
2023-05-24T01:05:13.521Z,9.11
2023-05-24T01:07:54.584Z,9.09
2023-05-24T01:10:34.861Z,8.97
2023-05-24T01:13:15.649Z,8.76
2023-05-24T01:15:56.592Z,8.66
2023-05-24T01:18:33.150Z,8.61
2023-05-24T01:21:24.885Z,8.60
2023-05-24T01:24:14.287Z,8.44
2023-05-24T01:26:56.120Z,8.39
2023-05-24T01:29:26.393Z,8.44
2023-05-24T01:31:54.450Z,8.52
2023-05-24T01:34:22.352Z,8.38
2023-05-24T01:36:50.514Z,8.43
2023-05-24T01:39:19.549Z,8.40
2023-05-24T01:42:05.190Z,8.45
2023-05-24T01:44:40.115Z,8.33
2023-05-24T01:47:27.398Z,8.30
2023-05-24T01:50:07.180Z,8.32
2023-05-24T01:52:36.276Z,8.34
2023-05-24T01:55:08.257Z,8.43
2023-05-24T01:57:41.418Z,8.35
2023-05-24T02:00:14.171Z,8.44
2023-05-24T02:02:42.409Z,8.38
2023-05-24T02:05:11.878Z,8.36
2023-05-24T02:07:41.291Z,8.48
2023-05-24T02:10:10.245Z,8.47
2023-05-24T02:12:39.622Z,8.52
2023-05-24T02:15:10.598Z,8.29
2023-05-24T02:17:38.631Z,8.39
2023-05-24T02:20:08.490Z,8.48
2023-05-24T02:22:36.601Z,8.48
2023-05-24T02:25:06.132Z,8.41
2023-05-24T02:27:34.167Z,8.41
2023-05-24T02:30:04.076Z,8.38
2023-05-24T02:32:32.916Z,8.32
2023-05-24T02:35:01.919Z,8.37
2023-05-24T02:37:29.802Z,8.53
2023-05-24T02:39:57.683Z,8.32
2023-05-24T02:42:25.739Z,8.33
2023-05-24T02:44:53.617Z,8.35
2023-05-24T02:47:22.951Z,8.55
2023-05-24T02:49:51.572Z,8.48
2023-05-24T02:52:22.830Z,8.37
2023-05-24T02:54:51.141Z,8.39
2023-05-24T02:57:20.686Z,8.41
2023-05-24T02:59:48.919Z,8.32
2023-05-24T03:02:19.543Z,8.35
2023-05-24T03:04:48.951Z,8.39
2023-05-24T03:07:17.212Z,8.32
2023-05-24T03:09:45.272Z,8.29
2023-05-24T03:12:13.974Z,8.35
2023-05-24T03:14:41.862Z,8.25
2023-05-24T03:17:09.810Z,8.34
2023-05-24T03:19:37.748Z,8.37
2023-05-24T03:22:07.061Z,8.32
2023-05-24T03:24:38.355Z,8.26
2023-05-24T03:27:06.600Z,8.20
2023-05-24T03:29:34.587Z,8.37
2023-05-24T03:32:02.822Z,8.51
2023-05-24T03:34:31.412Z,8.52
2023-05-24T03:36:59.386Z,8.52
2023-05-24T03:39:28.701Z,8.65
2023-05-24T03:42:08.785Z,8.69
2023-05-24T03:44:38.895Z,8.61
2023-05-24T03:47:07.764Z,8.63
2023-05-24T03:49:35.805Z,8.72
2023-05-24T03:52:03.945Z,8.84
2023-05-24T03:54:33.176Z,8.79
2023-05-24T03:57:01.638Z,8.75
2023-05-24T03:59:30.915Z,8.84
2023-05-24T04:01:58.827Z,8.85
2023-05-24T04:04:26.852Z,8.88
2023-05-24T04:06:56.213Z,9.01
2023-05-24T04:09:24.651Z,9.00
2023-05-24T04:11:53.934Z,9.09
2023-05-24T04:14:21.910Z,9.08
2023-05-24T04:16:49.739Z,9.10
2023-05-24T04:19:20.141Z,9.14
2023-05-24T04:21:48.268Z,9.20
2023-05-24T04:24:16.382Z,9.22
2023-05-24T04:26:45.587Z,9.26
2023-05-24T04:29:14.969Z,9.34
2023-05-24T04:31:44.848Z,9.48
2023-05-24T04:34:14.360Z,9.68
2023-05-24T04:36:42.980Z,9.79
2023-05-24T04:39:12.996Z,9.91
2023-05-24T04:41:40.975Z,10.05
2023-05-24T04:44:09.899Z,10.15
2023-05-24T04:46:39.235Z,10.15
2023-05-24T04:49:08.432Z,10.41
2023-05-24T04:51:38.517Z,10.51
2023-05-24T04:54:08.979Z,10.59
2023-05-24T04:56:38.780Z,10.85
2023-05-24T04:59:08.223Z,10.88
2023-05-24T05:01:36.562Z,10.75
2023-05-24T05:04:06.238Z,11.02
2023-05-24T05:06:38.341Z,10.92
2023-05-24T05:09:09.341Z,10.87
2023-05-24T05:11:37.574Z,11.08
2023-05-24T05:14:06.235Z,10.92
2023-05-24T05:16:34.160Z,11.00
2023-05-24T05:19:04.488Z,11.05
2023-05-24T05:21:34.958Z,11.08
2023-05-24T05:24:04.065Z,11.22
2023-05-24T05:26:31.989Z,11.36
2023-05-24T05:28:59.946Z,11.35
2023-05-24T05:31:27.737Z,11.47
2023-05-24T05:33:55.600Z,11.74
2023-05-24T05:36:23.537Z,11.84
2023-05-24T05:38:52.903Z,11.99
2023-05-24T05:41:20.973Z,12.13
2023-05-24T05:43:49.027Z,12.17
2023-05-24T05:46:16.934Z,11.92
2023-05-24T05:48:46.462Z,12.10
2023-05-24T05:51:14.559Z,12.10
2023-05-24T05:53:42.449Z,12.41
2023-05-24T05:56:11.657Z,12.82
2023-05-24T05:58:39.782Z,12.96
2023-05-24T06:01:07.798Z,12.78
2023-05-24T06:03:36.046Z,12.57
2023-05-24T06:06:04.408Z,12.69
2023-05-24T06:08:34.961Z,12.51
2023-05-24T06:11:03.298Z,12.70
2023-05-24T06:13:33.044Z,12.90
2023-05-24T06:16:01.216Z,12.87
2023-05-24T06:18:30.620Z,12.87
2023-05-24T06:20:58.576Z,12.66
2023-05-24T06:23:26.485Z,12.56
2023-05-24T06:25:54.698Z,12.84
2023-05-24T06:28:22.742Z,12.88
2023-05-24T06:30:52.012Z,12.88
2023-05-24T06:33:19.984Z,13.06
2023-05-24T06:35:48.030Z,13.29
2023-05-24T06:38:16.129Z,13.42
2023-05-24T06:40:44.474Z,13.33
2023-05-24T06:43:12.537Z,13.24
2023-05-24T06:45:42.240Z,13.29
2023-05-24T06:48:12.471Z,13.42
2023-05-24T06:50:42.601Z,13.46
2023-05-24T06:53:10.853Z,13.34
2023-05-24T06:55:38.799Z,13.81
2023-05-24T06:58:07.041Z,14.10
2023-05-24T07:00:34.775Z,14.18
2023-05-24T07:03:02.785Z,14.17
2023-05-24T07:05:32.234Z,14.13
2023-05-24T07:08:00.159Z,13.90
2023-05-24T07:10:28.042Z,13.78
2023-05-24T07:12:56.132Z,14.05
2023-05-24T07:15:23.955Z,14.13
2023-05-24T07:17:51.861Z,14.00
2023-05-24T07:20:19.813Z,14.15
2023-05-24T07:22:49.133Z,13.89
2023-05-24T07:25:17.476Z,13.76
2023-05-24T07:27:45.669Z,14.01
2023-05-24T07:30:27.916Z,13.97
2023-05-24T07:32:59.267Z,14.23
2023-05-24T07:35:29.233Z,14.18
2023-05-24T07:37:58.594Z,14.30
2023-05-24T07:40:26.652Z,14.21
2023-05-24T07:42:54.500Z,14.49
2023-05-24T07:45:22.890Z,14.64
2023-05-24T07:47:50.843Z,14.96
2023-05-24T07:50:19.286Z,15.06
2023-05-24T07:52:47.318Z,15.02
2023-05-24T07:55:16.588Z,15.26
2023-05-24T07:57:44.480Z,15.21
2023-05-24T08:00:16.622Z,15.35
2023-05-24T08:02:49.009Z,15.69
2023-05-24T08:05:17.682Z,15.63
2023-05-24T08:07:45.601Z,15.55
2023-05-24T08:10:14.068Z,15.45
2023-05-24T08:12:43.596Z,15.66
2023-05-24T08:15:11.860Z,15.55
2023-05-24T08:17:39.839Z,15.65
2023-05-24T08:20:16.944Z,15.26
2023-05-24T08:22:45.370Z,15.39
2023-05-24T08:25:13.174Z,15.40
2023-05-24T08:27:41.271Z,15.57
2023-05-24T08:30:12.546Z,15.80
2023-05-24T08:32:40.598Z,15.69
2023-05-24T08:35:19.482Z,16.08
2023-05-24T08:37:49.029Z,16.05
2023-05-24T08:40:18.208Z,16.17
2023-05-24T08:42:46.785Z,15.97
2023-05-24T08:45:18.056Z,15.96
2023-05-24T08:47:48.577Z,16.15
2023-05-24T08:50:17.841Z,16.50
2023-05-24T08:52:46.667Z,16.86
2023-05-24T08:55:16.148Z,17.55
2023-05-24T08:57:45.966Z,17.83
2023-05-24T09:00:17.020Z,17.52
2023-05-24T09:02:46.731Z,17.94
2023-05-24T09:05:17.411Z,18.19
2023-05-24T09:07:46.593Z,17.93
2023-05-24T09:10:15.639Z,17.66
2023-05-24T09:12:48.858Z,17.00
2023-05-24T09:15:19.185Z,16.67
2023-05-24T09:17:47.564Z,16.44
2023-05-24T09:20:15.714Z,16.46
2023-05-24T09:22:45.039Z,15.97
2023-05-24T09:25:14.887Z,16.03
2023-05-24T09:27:50.721Z,15.93
2023-05-24T09:30:21.590Z,15.78
2023-05-24T09:32:58.582Z,15.65
2023-05-24T09:35:27.196Z,15.44
2023-05-24T09:37:57.362Z,15.49
2023-05-24T09:40:26.335Z,15.84
2023-05-24T09:43:05.158Z,15.98
2023-05-24T09:45:40.984Z,15.97
2023-05-24T09:48:12.620Z,16.06
2023-05-24T09:50:41.550Z,16.46
2023-05-24T09:53:09.815Z,16.79
2023-05-24T09:55:38.204Z,16.91
2023-05-24T09:58:08.448Z,17.04
2023-05-24T10:00:41.605Z,17.05
2023-05-24T10:03:12.808Z,17.41
2023-05-24T10:05:44.732Z,18.03
2023-05-24T10:08:14.425Z,18.35
2023-05-24T10:10:43.667Z,18.52
2023-05-24T10:13:15.780Z,18.54
2023-05-24T10:15:45.497Z,18.54
2023-05-24T10:18:14.386Z,17.74
2023-05-24T10:20:43.209Z,17.66
2023-05-24T10:23:19.217Z,17.39
2023-05-24T10:25:53.816Z,17.05
2023-05-24T10:28:24.857Z,16.76
2023-05-24T10:31:07.495Z,16.88
2023-05-24T10:33:38.172Z,17.04
2023-05-24T10:36:10.621Z,17.07
2023-05-24T10:38:41.731Z,16.91
2023-05-24T10:41:09.789Z,16.70
2023-05-24T10:43:38.809Z,16.88
2023-05-24T10:46:10.884Z,16.83
2023-05-24T10:48:41.461Z,16.89
2023-05-24T10:51:33.642Z,16.80
2023-05-24T10:54:13.715Z,16.70
2023-05-24T10:56:44.609Z,17.13
2023-05-24T10:59:32.008Z,17.32
2023-05-24T11:02:01.957Z,17.44
2023-05-24T11:04:37.815Z,16.95
2023-05-24T11:07:11.581Z,16.92
2023-05-24T11:09:47.241Z,17.23
2023-05-24T11:12:17.731Z,16.96
2023-05-24T11:14:52.345Z,17.10
2023-05-24T11:17:23.848Z,17.26
2023-05-24T11:19:54.523Z,17.48
2023-05-24T11:22:26.763Z,17.55
2023-05-24T11:24:54.883Z,17.79
2023-05-24T11:27:24.332Z,17.86
2023-05-24T11:29:52.885Z,17.97
2023-05-24T11:32:24.009Z,18.00
2023-05-24T11:34:52.464Z,17.96
2023-05-24T11:37:28.632Z,18.14
2023-05-24T11:40:05.132Z,18.12
2023-05-24T11:42:34.047Z,18.45
2023-05-24T11:45:02.038Z,18.52
2023-05-24T11:47:35.109Z,18.40
2023-05-24T11:50:03.423Z,18.27
2023-05-24T11:52:31.388Z,17.46
2023-05-24T11:54:59.333Z,17.43
2023-05-24T11:57:38.285Z,17.45
2023-05-24T12:00:11.448Z,17.21
2023-05-24T12:02:42.300Z,17.24
2023-05-24T12:05:12.527Z,17.44
2023-05-24T12:07:40.867Z,17.18
2023-05-24T12:10:10.534Z,17.12
2023-05-24T12:15:14.725Z,17.81
2023-05-24T12:17:50.005Z,17.90
2023-05-24T12:20:21.659Z,17.67
2023-05-24T12:22:51.730Z,17.77
2023-05-24T12:25:22.549Z,17.95
2023-05-24T12:27:55.797Z,17.55
2023-05-24T12:30:24.067Z,17.48
2023-05-24T12:32:54.672Z,17.18
2023-05-24T12:35:23.946Z,17.49
2023-05-24T12:38:02.704Z,17.89
2023-05-24T12:40:33.547Z,17.69
2023-05-24T12:43:04.764Z,17.54
2023-05-24T12:45:33.054Z,17.85
2023-05-24T12:48:02.822Z,17.88
2023-05-24T12:50:31.462Z,17.88
2023-05-24T12:52:59.256Z,18.52
2023-05-24T12:55:28.603Z,18.89
2023-05-24T12:57:58.597Z,18.73
2023-05-24T13:00:28.803Z,19.06
2023-05-24T13:02:58.899Z,18.89
2023-05-24T13:05:30.087Z,19.00
2023-05-24T13:07:58.170Z,18.92
2023-05-24T13:10:27.622Z,18.72
2023-05-24T13:12:56.202Z,18.82
2023-05-24T13:15:24.098Z,18.85
2023-05-24T13:17:52.098Z,19.02
2023-05-24T13:20:22.184Z,19.41
2023-05-24T13:22:51.567Z,18.85
2023-05-24T13:25:22.453Z,19.07
2023-05-24T13:27:50.452Z,19.02
2023-05-24T13:30:18.768Z,19.11
2023-05-24T13:32:46.720Z,19.35
2023-05-24T13:35:14.710Z,19.74
2023-05-24T13:37:42.663Z,19.72
2023-05-24T13:40:12.619Z,19.85
2023-05-24T13:42:41.136Z,19.83
2023-05-24T13:45:11.659Z,20.26
2023-05-24T13:47:41.062Z,20.52
2023-05-24T13:50:11.160Z,20.45
2023-05-24T13:52:39.620Z,20.32
2023-05-24T13:55:08.969Z,20.01
2023-05-24T14:00:11.072Z,19.73
2023-05-24T14:02:39.567Z,19.71
2023-05-24T14:05:25.748Z,19.46
2023-05-24T14:07:57.461Z,19.55
2023-05-24T14:10:25.488Z,19.92
2023-05-24T14:13:11.271Z,20.36
2023-05-24T14:15:42.193Z,20.87
2023-05-24T14:18:10.887Z,21.88
2023-05-24T14:20:40.415Z,22.19
2023-05-24T14:23:08.881Z,21.91
2023-05-24T14:25:36.948Z,22.08
2023-05-24T14:28:08.514Z,22.05
2023-05-24T14:30:37.880Z,22.19
2023-05-24T14:33:08.008Z,22.14
2023-05-24T14:35:39.611Z,22.45
2023-05-24T14:38:10.836Z,22.43
2023-05-24T14:40:40.133Z,22.25
2023-05-24T14:43:10.662Z,22.19
2023-05-24T14:45:41.613Z,22.87
2023-05-24T14:48:11.727Z,22.36
2023-05-24T14:50:41.256Z,22.34
2023-05-24T14:53:11.863Z,22.02
2023-05-24T14:55:42.466Z,21.60
2023-05-24T14:58:12.568Z,21.67
2023-05-24T15:00:43.193Z,21.34
2023-05-24T15:03:12.797Z,21.30
2023-05-24T15:05:42.664Z,21.33
2023-05-24T15:08:13.783Z,21.50
2023-05-24T15:10:44.488Z,21.28
2023-05-24T15:13:14.453Z,21.19
2023-05-24T15:15:42.293Z,20.58
2023-05-24T15:18:10.491Z,20.32
2023-05-24T15:20:38.404Z,20.05
2023-05-24T15:23:06.462Z,20.09
2023-05-24T15:25:34.235Z,20.23
2023-05-24T15:28:02.279Z,20.46
2023-05-24T15:30:31.594Z,20.43
2023-05-24T15:32:59.486Z,20.22
2023-05-24T15:35:27.269Z,20.42
2023-05-24T15:37:55.071Z,20.73
2023-05-24T15:40:24.437Z,21.27
2023-05-24T15:42:53.005Z,22.04
2023-05-24T15:45:21.352Z,22.48
2023-05-24T15:47:50.820Z,22.28
2023-05-24T15:50:25.835Z,22.84
2023-05-24T15:52:59.867Z,22.42
2023-05-24T15:55:28.054Z,22.45
2023-05-24T15:57:57.699Z,22.30
2023-05-24T16:00:25.835Z,21.77
2023-05-24T16:02:56.982Z,21.41
2023-05-24T16:05:25.749Z,20.96
2023-05-24T16:07:53.687Z,20.90
2023-05-24T16:10:21.653Z,20.62
2023-05-24T16:12:49.601Z,20.42
2023-05-24T16:15:17.775Z,20.24
2023-05-24T16:17:45.762Z,20.22
2023-05-24T16:20:15.222Z,20.32
2023-05-24T16:22:49.246Z,20.22
2023-05-24T16:25:17.190Z,20.36
2023-05-24T16:27:45.011Z,20.29
2023-05-24T16:30:14.835Z,19.96
2023-05-24T16:32:45.072Z,19.84
2023-05-24T16:35:13.187Z,19.80
2023-05-24T16:37:42.353Z,19.68
2023-05-24T16:40:11.764Z,19.36
2023-05-24T16:42:39.707Z,19.35
2023-05-24T16:45:08.796Z,19.32
2023-05-24T16:47:37.239Z,19.39
2023-05-24T16:50:06.891Z,19.35
2023-05-24T16:52:35.124Z,19.27
2023-05-24T16:55:05.922Z,19.21
2023-05-24T16:57:35.373Z,19.01
2023-05-24T17:00:03.997Z,19.00
2023-05-24T17:02:32.170Z,18.98
2023-05-24T17:05:00.236Z,19.22
2023-05-24T17:07:28.118Z,19.35
2023-05-24T17:09:55.884Z,19.42
2023-05-24T17:12:25.128Z,19.48
2023-05-24T17:14:52.953Z,19.52
2023-05-24T17:17:20.980Z,19.49
2023-05-24T17:19:48.930Z,19.57
2023-05-24T17:22:16.776Z,19.47
2023-05-24T17:24:44.636Z,19.43
2023-05-24T17:27:13.086Z,19.40
2023-05-24T17:29:44.426Z,19.29
2023-05-24T17:32:12.305Z,19.16
2023-05-24T17:34:40.231Z,19.25
2023-05-24T17:37:08.196Z,19.12
2023-05-24T17:39:36.005Z,19.27
2023-05-24T17:42:04.717Z,19.10
2023-05-24T17:44:32.725Z,19.26
2023-05-24T17:47:02.062Z,19.29
2023-05-24T17:49:30.066Z,19.32
2023-05-24T17:52:00.530Z,19.23
2023-05-24T17:54:29.019Z,19.26
2023-05-24T17:56:57.017Z,18.84
2023-05-24T17:59:24.907Z,19.00
2023-05-24T18:01:52.797Z,18.97
2023-05-24T18:04:21.982Z,19.03
2023-05-24T18:06:49.953Z,18.93
2023-05-24T18:09:18.016Z,18.63
2023-05-24T18:11:45.865Z,18.68
2023-05-24T18:14:13.735Z,18.80
2023-05-24T18:16:42.889Z,18.80
2023-05-24T18:19:10.848Z,18.70
2023-05-24T18:21:40.954Z,18.75
2023-05-24T18:24:08.904Z,18.87
2023-05-24T18:26:36.919Z,18.90
2023-05-24T18:29:04.727Z,18.77
2023-05-24T18:31:32.519Z,18.67
2023-05-24T18:34:01.825Z,18.55
2023-05-24T18:36:30.253Z,18.57
2023-05-24T18:38:59.532Z,18.42
2023-05-24T18:41:27.326Z,18.28
2023-05-24T18:43:55.158Z,18.35
2023-05-24T18:46:23.098Z,18.37
2023-05-24T18:48:52.679Z,18.15
2023-05-24T18:51:20.718Z,18.16
2023-05-24T18:53:50.460Z,18.18
2023-05-24T18:56:19.800Z,18.25
2023-05-24T18:58:49.801Z,18.16
2023-05-24T19:01:17.968Z,18.06
2023-05-24T19:03:45.961Z,17.96
2023-05-24T19:06:14.557Z,17.90
2023-05-24T19:08:42.836Z,17.96
2023-05-24T19:11:11.397Z,17.91
2023-05-24T19:13:41.547Z,17.72
2023-05-24T19:16:09.995Z,17.77
2023-05-24T19:18:38.012Z,17.90
2023-05-24T19:21:06.222Z,17.89
2023-05-24T19:23:34.135Z,17.80
2023-05-24T19:26:02.032Z,17.62
2023-05-24T19:28:30.499Z,17.57
2023-05-24T19:31:02.402Z,17.55
2023-05-24T19:33:30.356Z,17.41
2023-05-24T19:35:58.197Z,17.38
2023-05-24T19:38:26.376Z,17.30
2023-05-24T19:40:54.221Z,17.28
2023-05-24T19:43:22.005Z,17.03
2023-05-24T19:45:51.757Z,16.97
2023-05-24T19:48:21.684Z,16.75
2023-05-24T19:50:50.468Z,16.65
2023-05-24T19:53:18.352Z,16.60
2023-05-24T19:55:46.318Z,16.45
2023-05-24T19:58:14.367Z,16.48
2023-05-24T20:00:42.750Z,16.46
2023-05-24T20:03:10.836Z,16.33
2023-05-24T20:05:40.581Z,16.18
2023-05-24T20:08:08.517Z,16.08
2023-05-24T20:10:38.747Z,16.08
2023-05-24T20:13:06.709Z,15.94
2023-05-24T20:15:34.622Z,15.84
2023-05-24T20:18:02.561Z,15.77
2023-05-24T20:20:30.509Z,15.77
2023-05-24T20:23:00.032Z,15.75
2023-05-24T20:25:27.924Z,15.64
2023-05-24T20:27:55.911Z,15.64
2023-05-24T20:30:23.777Z,15.57
2023-05-24T20:32:51.749Z,15.42
2023-05-24T20:35:19.620Z,15.43
2023-05-24T20:37:47.509Z,15.41
2023-05-24T20:40:23.946Z,15.30
2023-05-24T20:42:52.193Z,15.23
2023-05-24T20:45:20.042Z,15.19
2023-05-24T20:47:47.944Z,15.11
2023-05-24T20:50:16.099Z,15.10
2023-05-24T20:52:44.007Z,15.05
2023-05-24T20:55:12.089Z,14.99
2023-05-24T20:57:41.528Z,14.93
2023-05-24T21:00:10.766Z,14.90
2023-05-24T21:02:40.318Z,14.93
2023-05-24T21:05:09.685Z,14.91
2023-05-24T21:07:37.511Z,14.84
2023-05-24T21:10:07.719Z,14.82
2023-05-24T21:12:35.815Z,14.74
2023-05-24T21:15:06.730Z,14.56
2023-05-24T21:17:34.706Z,14.48
2023-05-24T21:20:04.042Z,14.42
2023-05-24T21:22:32.261Z,14.36
2023-05-24T21:25:00.203Z,14.25
2023-05-24T21:27:28.180Z,14.25
2023-05-24T21:29:56.117Z,14.12
2023-05-24T21:32:25.415Z,14.15
2023-05-24T21:34:53.330Z,14.14
2023-05-24T21:37:21.156Z,14.13
2023-05-24T21:39:50.095Z,14.11
2023-05-24T21:42:18.016Z,14.06
2023-05-24T21:44:45.825Z,14.01
2023-05-24T21:47:13.865Z,13.93
2023-05-24T21:49:43.126Z,13.97
2023-05-24T21:52:11.078Z,13.90
2023-05-24T21:54:38.973Z,13.87
2023-05-24T21:57:07.181Z,13.84
2023-05-24T21:59:35.160Z,13.71
2023-05-24T22:02:03.373Z,13.67
2023-05-24T22:04:31.315Z,13.57
2023-05-24T22:07:00.775Z,13.55
2023-05-24T22:09:28.581Z,13.51
2023-05-24T22:11:56.483Z,13.46
2023-05-24T22:14:24.290Z,13.40
2023-05-24T22:16:52.260Z,13.38
2023-05-24T22:19:38.511Z,13.32
2023-05-24T22:22:09.903Z,13.26
2023-05-24T22:24:37.821Z,13.15
2023-05-24T22:27:09.525Z,13.19
2023-05-24T22:29:37.410Z,13.15
2023-05-24T22:32:05.967Z,13.12
2023-05-24T22:34:33.860Z,13.12
2023-05-24T22:37:01.627Z,13.05
2023-05-24T22:39:31.052Z,13.01
2023-05-24T22:41:59.007Z,12.97
2023-05-24T22:44:26.950Z,12.89
2023-05-24T22:46:54.825Z,12.88
2023-05-24T22:49:22.900Z,12.82
2023-05-24T22:51:51.110Z,12.82
2023-05-24T22:54:19.984Z,12.79
2023-05-24T22:56:49.252Z,12.76
2023-05-24T22:59:17.288Z,12.82
2023-05-24T23:01:45.260Z,12.82
2023-05-24T23:06:47.377Z,12.74
2023-05-24T23:09:15.233Z,12.72
2023-05-24T23:11:43.186Z,12.78
2023-05-24T23:14:12.268Z,12.75
2023-05-24T23:16:45.712Z,12.69
2023-05-24T23:19:18.091Z,12.66
2023-05-24T23:21:46.313Z,12.63
2023-05-24T23:24:15.678Z,12.53
2023-05-24T23:26:43.817Z,12.45
2023-05-24T23:29:13.419Z,12.50
2023-05-24T23:31:41.655Z,12.41
2023-05-24T23:34:09.592Z,12.39
2023-05-24T23:36:37.450Z,12.31
2023-05-24T23:39:06.125Z,12.20
2023-05-24T23:41:33.993Z,12.17
2023-05-24T23:44:01.814Z,12.12
2023-05-24T23:46:31.191Z,12.16
2023-05-24T23:48:59.945Z,12.06
2023-05-24T23:51:32.807Z,12.08
2023-05-24T23:54:01.487Z,12.02
2023-05-24T23:56:29.520Z,12.00
2023-05-24T23:58:57.550Z,11.97
